WetterOnline ( https://www.wetteronline.de )

Wetter aktuell Leipzig

Aktuelles Wetter: Leipzig-Holzhausen (138m)

6-stündlich | Neueste Meldungen
Ortszeit Temperatur Wetter
So, 29.11. 1:00 2.7° C bedeckt
Sa, 28.11. 19:00 3.2° C bedeckt
Sa, 28.11. 13:00 3.8° C bewölkt
Sa, 28.11. 7:00 3.1° C bedeckt
Sa, 28.11. 1:00 2.8° C Nebel
Fr, 27.11. 19:00 0.1° C wolkenlos
Fr, 27.11. 13:00 5.8° C wolkenlos
Fr, 27.11. 7:00 1.8° C bedeckt
Ortszeit Temperatur Wetter
So, 29.11. 5:30 1.2° C wolkig
So, 29.11. 5:20 1.2° C wolkig
So, 29.11. 5:10 1.8° C bedeckt
So, 29.11. 5:00 2.1° C bedeckt
So, 29.11. 4:50 2.1° C bedeckt
So, 29.11. 4:40 2.2° C bedeckt
So, 29.11. 4:30 2.2° C bedeckt
So, 29.11. 4:00 2.3° C bedeckt
So, 29.11. 3:00 2.4° C bedeckt
So, 29.11. 2:00 2.5° C bedeckt
Ortszeit Relative Feuchte Sichtweite
So, 29.11. 1:00 78% 45 km
Sa, 28.11. 19:00 71% 45 km
Sa, 28.11. 13:00 75% 30 km
Sa, 28.11. 7:00 97% 3.7 km
Sa, 28.11. 1:00 98% 0.8 km
Fr, 27.11. 19:00 93% 6 km
Fr, 27.11. 13:00 72% 30 km
Fr, 27.11. 7:00 88% 21 km
Ortszeit Relative Feuchte Sichtweite
So, 29.11. 5:30 88% 27 km
So, 29.11. 5:20 88% -
So, 29.11. 5:10 87% -
So, 29.11. 5:00 85% 30 km
So, 29.11. 4:50 85% -
So, 29.11. 4:40 85% -
So, 29.11. 4:30 85% 35 km
So, 29.11. 4:00 84% 30 km
So, 29.11. 3:00 82% 35 km
So, 29.11. 2:00 81% 40 km
Ortszeit Niederschlagsmenge Niederschlagsart
So, 29.11. 1:00 0.0 l/m2 in 6 Std. -
Sa, 28.11. 19:00 0.0 l/m2 in 12 Std. -
Sa, 28.11. 13:00 0.0 l/m2 in 6 Std. -
Sa, 28.11. 7:00 0.0 l/m2 in 12 Std. -
Sa, 28.11. 1:00 0.0 l/m2 in 6 Std. -
Fr, 27.11. 19:00 0.1 l/m2 in 12 Std. -
Fr, 27.11. 13:00 0.1 l/m2 in 6 Std. Regen
Fr, 27.11. 7:00 0.1 l/m2 in 12 Std. Regen
Ortszeit Niederschlagsmenge Niederschlagsart
So, 29.11. 5:30 0.0 l/m2 in 1 Std. -
So, 29.11. 5:20 keine Meldung -
So, 29.11. 5:10 keine Meldung -
So, 29.11. 5:00 0.0 l/m2 in 1 Std. -
So, 29.11. 4:50 keine Meldung -
So, 29.11. 4:40 keine Meldung -
So, 29.11. 4:30 0.0 l/m2 in 1 Std. -
So, 29.11. 4:00 0.0 l/m2 in 1 Std. -
So, 29.11. 3:00 keine Meldung -
So, 29.11. 2:00 keine Meldung -
Ortszeit Stärke Spitze Richtung
km/h Bft. km/h Grad Sektor
So, 29.11. 1:00 4 1 11 10° N
Sa, 28.11. 19:00 4 1 22 40° NO
Sa, 28.11. 13:00 4 1 22 80° O
Sa, 28.11. 7:00 7 2 14 50° NO
Sa, 28.11. 1:00 4 1 11 100° O
Fr, 27.11. 19:00 0 0 14 - -
Fr, 27.11. 13:00 6 1 11 150° SO
Fr, 27.11. 7:00 7 2 14 200° S
Ortszeit Stärke Spitze Richtung
km/h Bft. km/h Grad Sektor
So, 29.11. 5:30 2 1 4 200° S
So, 29.11. 5:20 2 1 - 200° S
So, 29.11. 5:10 4 1 - 280° W
So, 29.11. 5:00 0 0 7 - -
So, 29.11. 4:50 2 1 - 360° N
So, 29.11. 4:40 4 1 - 360° N
So, 29.11. 4:30 4 1 7 360° N
So, 29.11. 4:00 4 1 7 10° N
So, 29.11. 3:00 4 1 7 20° N
So, 29.11. 2:00 4 1 7 20° N
Ortszeit Untergrenze Bedeckung Gattung
total tief tief mittel hoch
So, 29.11. 1:00 990 m 8/8 8/8 - - -
Sa, 28.11. 19:00 780 m 8/8 8/8 - - -
Sa, 28.11. 13:00 510 m 7/8 7/8 - - -
Sa, 28.11. 7:00 60 m 8/8 8/8 - - -
Sa, 28.11. 1:00 30 m 8/8 8/8 - - -
Fr, 27.11. 19:00 - 0/8 0/8 - - -
Fr, 27.11. 13:00 - 0/8 0/8 - - -
Fr, 27.11. 7:00 2400 m 8/8 8/8 - - -
Ortszeit Bedeckungsgrad in Achtel und Wolkenuntergrenze
So, 29.11. 5:30 6(960m)
So, 29.11. 5:20 6(960m)
So, 29.11. 5:10 8(930m)
So, 29.11. 5:00 8(930m)
So, 29.11. 4:50 8(930m)
So, 29.11. 4:40 8(930m)
So, 29.11. 4:30 8(930m)
So, 29.11. 4:00 8(930m)
So, 29.11. 3:00 8(930m)
So, 29.11. 2:00 8(930m)
Ortszeit Luftdruck NN (hPa) Tendenz (hPa in 3 Std.)
So, 29.11. 1:00 1026 - 0,1
Sa, 28.11. 19:00 1026 + 0,8
Sa, 28.11. 13:00 1025 - 0,1
Sa, 28.11. 7:00 1023 + 0,5
Sa, 28.11. 1:00 1023 + 0,1
Fr, 27.11. 19:00 1023 + 0,7
Fr, 27.11. 13:00 1022 - 0,7
Fr, 27.11. 7:00 1022 + 0,1
Ortszeit Luftdruck NN (hPa) Tendenz (hPa in 3 Std.)
So, 29.11. 5:30 1026 - 0,3
So, 29.11. 5:20 1026 keine Meldung
So, 29.11. 5:10 1026 keine Meldung
So, 29.11. 5:00 1026 - 0,1
So, 29.11. 4:50 1026 keine Meldung
So, 29.11. 4:40 1026 keine Meldung
So, 29.11. 4:30 1026 - 0,2
So, 29.11. 4:00 1026 - 0,1
So, 29.11. 3:00 1026 - 0,3
So, 29.11. 2:00 1026 - 0,3
Ortszeit Schneehöhe (cm)
So, 29.11. 1:00 0
Sa, 28.11. 19:00 0
Sa, 28.11. 13:00 0
Sa, 28.11. 7:00 0
Sa, 28.11. 1:00 0
Fr, 27.11. 19:00 0
Fr, 27.11. 13:00 0
Fr, 27.11. 7:00 0
Ortszeit Schneehöhe (cm)
So, 29.11. 5:30 0
So, 29.11. 5:20 0
So, 29.11. 5:10 0
So, 29.11. 5:00 0
So, 29.11. 4:50 0
So, 29.11. 4:40 0
So, 29.11. 4:30 0
So, 29.11. 4:00 0
So, 29.11. 3:00 -
So, 29.11. 2:00 -
Link zu dieser Seite / Seite empfehlen

Das Wetter in ...